sensor_id;sensor_type;location;lat;lon;timestamp;pressure;altitude;pressure_sealevel;temperature;humidity
76746;BME280;65671;49.976;20.038;2023-02-26T00:01:42;96707.44;;;0.16;90.18
76746;BME280;65671;49.976;20.038;2023-02-26T00:04:08;96725.34;;;0.19;90.49
76746;BME280;65671;49.976;20.038;2023-02-26T00:06:37;96721.53;;;0.16;90.51
76746;BME280;65671;49.976;20.038;2023-02-26T00:09:04;96733.16;;;0.08;90.91
76746;BME280;65671;49.976;20.038;2023-02-26T00:11:31;96723.22;;;0.05;90.49
76746;BME280;65671;49.976;20.038;2023-02-26T00:13:57;96710.16;;;-0.04;91.38
76746;BME280;65671;49.976;20.038;2023-02-26T00:16:31;96726.72;;;0.09;90.35
76746;BME280;65671;49.976;20.038;2023-02-26T00:19:01;96724.41;;;0.08;90.87
76746;BME280;65671;49.976;20.038;2023-02-26T00:21:28;96723.22;;;0.05;90.18
76746;BME280;65671;49.976;20.038;2023-02-26T00:23:54;96730.66;;;-0.04;91.42
76746;BME280;65671;49.976;20.038;2023-02-26T00:26:22;96743.81;;;0.08;91.64
76746;BME280;65671;49.976;20.038;2023-02-26T00:28:48;96757.47;;;0.07;91.16
76746;BME280;65671;49.976;20.038;2023-02-26T00:31:15;96748.19;;;-0.03;90.63
76746;BME280;65671;49.976;20.038;2023-02-26T00:33:43;96741.16;;;-0.11;90.52
76746;BME280;65671;49.976;20.038;2023-02-26T00:36:18;96750.94;;;0.04;91.10
76746;BME280;65671;49.976;20.038;2023-02-26T00:38:55;96766.09;;;0.00;90.15
76746;BME280;65671;49.976;20.038;2023-02-26T00:41:28;96768.41;;;0.02;90.00
76746;BME280;65671;49.976;20.038;2023-02-26T00:43:54;96782.00;;;-0.04;89.08
76746;BME280;65671;49.976;20.038;2023-02-26T00:48:58;96785.00;;;-0.05;89.54
76746;BME280;65671;49.976;20.038;2023-02-26T00:54:15;96801.50;;;0.04;88.28
76746;BME280;65671;49.976;20.038;2023-02-26T00:56:42;96785.28;;;-0.10;88.93
76746;BME280;65671;49.976;20.038;2023-02-26T00:59:08;96794.38;;;-0.11;88.42
76746;BME280;65671;49.976;20.038;2023-02-26T01:01:33;96792.63;;;-0.04;88.47
76746;BME280;65671;49.976;20.038;2023-02-26T01:03:59;96784.78;;;0.04;88.86
76746;BME280;65671;49.976;20.038;2023-02-26T01:06:29;96787.91;;;0.09;88.47
76746;BME280;65671;49.976;20.038;2023-02-26T01:09:29;96795.06;;;0.05;88.34
76746;BME280;65671;49.976;20.038;2023-02-26T01:11:58;96798.06;;;0.04;88.55
76746;BME280;65671;49.976;20.038;2023-02-26T01:14:28;96768.34;;;-0.21;89.69
76746;BME280;65671;49.976;20.038;2023-02-26T01:22:07;96770.88;;;-0.09;90.53
76746;BME280;65671;49.976;20.038;2023-02-26T01:24:35;96760.22;;;-0.09;90.73
76746;BME280;65671;49.976;20.038;2023-02-26T01:27:01;96771.28;;;-0.07;89.74
76746;BME280;65671;49.976;20.038;2023-02-26T01:29:27;96752.66;;;-0.07;90.87
76746;BME280;65671;49.976;20.038;2023-02-26T01:32:10;96760.97;;;-0.09;90.36
76746;BME280;65671;49.976;20.038;2023-02-26T01:34:45;96743.34;;;-0.17;90.65
76746;BME280;65671;49.976;20.038;2023-02-26T01:42:53;96773.31;;;-0.20;91.52
76746;BME280;65671;49.976;20.038;2023-02-26T01:45:31;96767.03;;;-0.31;90.43
76746;BME280;65671;49.976;20.038;2023-02-26T01:48:05;96766.94;;;-0.34;90.95
76746;BME280;65671;49.976;20.038;2023-02-26T01:50:34;96785.28;;;-0.48;91.66
76746;BME280;65671;49.976;20.038;2023-02-26T01:53:29;96807.94;;;-0.35;91.61
76746;BME280;65671;49.976;20.038;2023-02-26T01:55:59;96810.69;;;-0.32;91.75
76746;BME280;65671;49.976;20.038;2023-02-26T01:58:29;96806.44;;;-0.36;90.79
76746;BME280;65671;49.976;20.038;2023-02-26T02:00:55;96817.63;;;-0.27;91.25
76746;BME280;65671;49.976;20.038;2023-02-26T02:03:23;96823.19;;;-0.32;90.32
76746;BME280;65671;49.976;20.038;2023-02-26T02:05:55;96833.66;;;-0.24;89.76
76746;BME280;65671;49.976;20.038;2023-02-26T02:08:22;96846.28;;;-0.21;89.87
76746;BME280;65671;49.976;20.038;2023-02-26T02:10:50;96835.09;;;-0.26;88.87
76746;BME280;65671;49.976;20.038;2023-02-26T02:13:27;96828.69;;;-0.25;88.38
76746;BME280;65671;49.976;20.038;2023-02-26T02:22:05;96827.44;;;-0.12;87.48
76746;BME280;65671;49.976;20.038;2023-02-26T02:24:14;96825.41;;;-0.19;87.65
76746;BME280;65671;49.976;20.038;2023-02-26T02:27:02;96825.31;;;-0.22;88.21
76746;BME280;65671;49.976;20.038;2023-02-26T02:32:17;96812.63;;;-0.48;87.03
76746;BME280;65671;49.976;20.038;2023-02-26T02:34:58;96824.06;;;-0.47;87.97
76746;BME280;65671;49.976;20.038;2023-02-26T02:37:39;96854.16;;;-0.24;87.20
76746;BME280;65671;49.976;20.038;2023-02-26T02:40:14;96861.88;;;-0.19;87.37
76746;BME280;65671;49.976;20.038;2023-02-26T02:47:48;96880.91;;;-0.17;89.48
76746;BME280;65671;49.976;20.038;2023-02-26T02:50:38;96886.22;;;-0.17;89.81
76746;BME280;65671;49.976;20.038;2023-02-26T02:53:33;96885.41;;;-0.21;89.05
76746;BME280;65671;49.976;20.038;2023-02-26T02:56:01;96887.88;;;-0.28;90.14
76746;BME280;65671;49.976;20.038;2023-02-26T02:58:33;96879.28;;;-0.22;89.48
76746;BME280;65671;49.976;20.038;2023-02-26T03:01:05;96870.22;;;-0.21;88.70
76746;BME280;65671;49.976;20.038;2023-02-26T03:03:45;96879.38;;;-0.18;89.77
76746;BME280;65671;49.976;20.038;2023-02-26T03:06:13;96862.47;;;-0.26;90.08
76746;BME280;65671;49.976;20.038;2023-02-26T03:08:40;96865.59;;;-0.05;89.06
76746;BME280;65671;49.976;20.038;2023-02-26T03:11:07;96847.50;;;-0.15;88.62
76746;BME280;65671;49.976;20.038;2023-02-26T03:13:33;96848.16;;;-0.02;87.56
76746;BME280;65671;49.976;20.038;2023-02-26T03:18:44;96867.91;;;-0.03;87.40
76746;BME280;65671;49.976;20.038;2023-02-26T03:21:24;96867.72;;;-0.29;89.13
76746;BME280;65671;49.976;20.038;2023-02-26T03:23:59;96880.31;;;-0.26;87.93
76746;BME280;65671;49.976;20.038;2023-02-26T03:26:32;96893.16;;;-0.13;89.05
76746;BME280;65671;49.976;20.038;2023-02-26T03:29:07;96912.00;;;-0.21;88.41
76746;BME280;65671;49.976;20.038;2023-02-26T03:31:41;96917.81;;;-0.16;89.06
76746;BME280;65671;49.976;20.038;2023-02-26T03:34:16;96928.66;;;-0.05;89.25
76746;BME280;65671;49.976;20.038;2023-02-26T03:36:48;96944.28;;;-0.04;88.38
76746;BME280;65671;49.976;20.038;2023-02-26T03:39:25;96946.50;;;-0.06;88.35
76746;BME280;65671;49.976;20.038;2023-02-26T03:42:01;96945.25;;;-0.12;87.73
76746;BME280;65671;49.976;20.038;2023-02-26T03:44:38;96942.25;;;-0.10;87.68
76746;BME280;65671;49.976;20.038;2023-02-26T03:47:10;96950.22;;;-0.10;87.89
76746;BME280;65671;49.976;20.038;2023-02-26T03:49:47;96953.59;;;0.06;85.45
76746;BME280;65671;49.976;20.038;2023-02-26T03:52:14;96944.81;;;0.21;84.29
76746;BME280;65671;49.976;20.038;2023-02-26T03:54:51;96935.50;;;0.12;82.85
76746;BME280;65671;49.976;20.038;2023-02-26T03:57:19;96942.53;;;-0.15;81.93
76746;BME280;65671;49.976;20.038;2023-02-26T03:59:45;96941.94;;;0.11;79.92
76746;BME280;65671;49.976;20.038;2023-02-26T04:02:13;96947.59;;;0.09;79.85
76746;BME280;65671;49.976;20.038;2023-02-26T04:04:48;96940.66;;;0.05;78.58
76746;BME280;65671;49.976;20.038;2023-02-26T04:07:16;96962.66;;;0.02;77.17
76746;BME280;65671;49.976;20.038;2023-02-26T04:09:47;96965.84;;;-0.09;78.87
76746;BME280;65671;49.976;20.038;2023-02-26T04:12:13;96968.56;;;-0.05;78.00
76746;BME280;65671;49.976;20.038;2023-02-26T04:14:39;97000.50;;;-0.05;78.49
76746;BME280;65671;49.976;20.038;2023-02-26T04:17:05;97007.06;;;-0.18;77.77
76746;BME280;65671;49.976;20.038;2023-02-26T04:19:31;96993.25;;;-0.24;77.19
76746;BME280;65671;49.976;20.038;2023-02-26T04:21:56;97004.75;;;0.15;76.76
76746;BME280;65671;49.976;20.038;2023-02-26T04:24:22;97006.28;;;-0.19;77.86
76746;BME280;65671;49.976;20.038;2023-02-26T04:26:48;97022.47;;;-0.08;76.16
76746;BME280;65671;49.976;20.038;2023-02-26T04:29:13;97019.41;;;-0.10;76.53
76746;BME280;65671;49.976;20.038;2023-02-26T04:31:39;97036.75;;;-0.16;76.37
76746;BME280;65671;49.976;20.038;2023-02-26T04:34:04;97014.44;;;-0.27;75.87
76746;BME280;65671;49.976;20.038;2023-02-26T04:36:30;97028.75;;;-0.16;75.38
76746;BME280;65671;49.976;20.038;2023-02-26T04:38:55;97022.16;;;-0.22;75.05
76746;BME280;65671;49.976;20.038;2023-02-26T04:41:21;97015.03;;;-0.34;75.89
76746;BME280;65671;49.976;20.038;2023-02-26T04:43:46;97041.03;;;-0.27;76.38
76746;BME280;65671;49.976;20.038;2023-02-26T04:46:12;97034.84;;;-0.31;77.11
76746;BME280;65671;49.976;20.038;2023-02-26T04:48:37;97041.78;;;-0.11;76.76
76746;BME280;65671;49.976;20.038;2023-02-26T04:51:06;97021.88;;;-0.02;75.69
76746;BME280;65671;49.976;20.038;2023-02-26T04:53:31;97029.97;;;-0.29;76.05
76746;BME280;65671;49.976;20.038;2023-02-26T04:55:57;97033.06;;;-0.43;74.94
76746;BME280;65671;49.976;20.038;2023-02-26T04:58:25;97043.94;;;-0.32;74.80
76746;BME280;65671;49.976;20.038;2023-02-26T05:00:52;97044.13;;;-0.25;75.61
76746;BME280;65671;49.976;20.038;2023-02-26T05:03:21;97027.75;;;-0.27;75.17
76746;BME280;65671;49.976;20.038;2023-02-26T05:05:47;97041.63;;;-0.34;74.24
76746;BME280;65671;49.976;20.038;2023-02-26T05:08:16;97024.81;;;-0.38;74.74
76746;BME280;65671;49.976;20.038;2023-02-26T05:10:42;97042.06;;;-0.47;75.68
76746;BME280;65671;49.976;20.038;2023-02-26T05:13:07;97073.88;;;-0.35;74.23
76746;BME280;65671;49.976;20.038;2023-02-26T05:15:33;97043.19;;;-0.33;73.59
76746;BME280;65671;49.976;20.038;2023-02-26T05:17:58;97061.97;;;-0.10;74.37
76746;BME280;65671;49.976;20.038;2023-02-26T05:20:23;97067.00;;;-0.52;75.80
76746;BME280;65671;49.976;20.038;2023-02-26T05:22:49;97062.31;;;-0.43;75.19
76746;BME280;65671;49.976;20.038;2023-02-26T05:25:15;97053.47;;;-0.47;76.53
76746;BME280;65671;49.976;20.038;2023-02-26T05:27:40;97066.53;;;-0.42;77.43
76746;BME280;65671;49.976;20.038;2023-02-26T05:30:12;97061.50;;;-0.59;76.64
76746;BME280;65671;49.976;20.038;2023-02-26T05:32:39;97060.66;;;-0.63;76.92
76746;BME280;65671;49.976;20.038;2023-02-26T05:35:05;97053.69;;;-0.68;77.56
76746;BME280;65671;49.976;20.038;2023-02-26T05:37:31;97059.09;;;-0.64;76.60
76746;BME280;65671;49.976;20.038;2023-02-26T05:39:57;97057.16;;;-0.51;77.28
76746;BME280;65671;49.976;20.038;2023-02-26T05:42:22;97085.97;;;-0.53;76.46
76746;BME280;65671;49.976;20.038;2023-02-26T05:44:49;97093.59;;;-0.52;75.41
76746;BME280;65671;49.976;20.038;2023-02-26T05:47:15;97102.09;;;-0.62;75.54
76746;BME280;65671;49.976;20.038;2023-02-26T05:49:41;97120.97;;;-0.51;72.30
76746;BME280;65671;49.976;20.038;2023-02-26T05:52:06;97135.31;;;-0.40;72.13
76746;BME280;65671;49.976;20.038;2023-02-26T05:54:32;97143.38;;;-0.37;72.32
76746;BME280;65671;49.976;20.038;2023-02-26T05:56:57;97141.44;;;-0.24;72.70
76746;BME280;65671;49.976;20.038;2023-02-26T05:59:23;97154.34;;;-0.38;71.32
76746;BME280;65671;49.976;20.038;2023-02-26T06:01:48;97151.25;;;-0.40;71.59
76746;BME280;65671;49.976;20.038;2023-02-26T06:04:14;97170.13;;;-0.45;70.88
76746;BME280;65671;49.976;20.038;2023-02-26T06:06:39;97154.28;;;-0.42;72.13
76746;BME280;65671;49.976;20.038;2023-02-26T06:09:05;97172.97;;;-0.38;73.35
76746;BME280;65671;49.976;20.038;2023-02-26T06:11:31;97164.56;;;-0.40;72.39
76746;BME280;65671;49.976;20.038;2023-02-26T06:13:57;97163.50;;;-0.51;72.94
76746;BME280;65671;49.976;20.038;2023-02-26T06:16:22;97184.00;;;-0.24;73.58
76746;BME280;65671;49.976;20.038;2023-02-26T06:18:48;97186.72;;;-0.36;70.73
76746;BME280;65671;49.976;20.038;2023-02-26T06:21:14;97189.41;;;-0.48;71.29
76746;BME280;65671;49.976;20.038;2023-02-26T06:23:40;97180.97;;;-0.23;73.20
76746;BME280;65671;49.976;20.038;2023-02-26T06:26:06;97187.44;;;-0.51;72.22
76746;BME280;65671;49.976;20.038;2023-02-26T06:28:32;97207.41;;;-0.30;72.27
76746;BME280;65671;49.976;20.038;2023-02-26T06:30:58;97193.38;;;-0.42;72.41
76746;BME280;65671;49.976;20.038;2023-02-26T06:33:27;97215.97;;;-0.36;73.44
76746;BME280;65671;49.976;20.038;2023-02-26T06:35:52;97212.44;;;-0.40;74.10
76746;BME280;65671;49.976;20.038;2023-02-26T06:38:18;97213.19;;;-0.40;73.45
76746;BME280;65671;49.976;20.038;2023-02-26T06:40:46;97223.75;;;-0.43;74.56
76746;BME280;65671;49.976;20.038;2023-02-26T06:43:12;97202.34;;;-0.47;73.67
76746;BME280;65671;49.976;20.038;2023-02-26T06:45:37;97199.25;;;-0.77;74.56
76746;BME280;65671;49.976;20.038;2023-02-26T06:48:03;97217.63;;;-0.72;75.08
76746;BME280;65671;49.976;20.038;2023-02-26T06:50:28;97214.06;;;-0.64;74.78
76746;BME280;65671;49.976;20.038;2023-02-26T06:52:54;97227.91;;;-0.70;74.63
76746;BME280;65671;49.976;20.038;2023-02-26T06:55:19;97232.44;;;-0.71;74.14
76746;BME280;65671;49.976;20.038;2023-02-26T06:57:46;97237.94;;;-0.51;73.62
76746;BME280;65671;49.976;20.038;2023-02-26T07:00:12;97233.50;;;-0.47;73.91
76746;BME280;65671;49.976;20.038;2023-02-26T07:02:38;97237.88;;;-0.27;73.84
76746;BME280;65671;49.976;20.038;2023-02-26T07:05:04;97230.09;;;-0.48;73.85
76746;BME280;65671;49.976;20.038;2023-02-26T07:07:30;97242.75;;;-0.69;74.33
76746;BME280;65671;49.976;20.038;2023-02-26T07:09:55;97243.69;;;-0.49;73.47
76746;BME280;65671;49.976;20.038;2023-02-26T07:12:21;97239.22;;;-0.33;73.18
76746;BME280;65671;49.976;20.038;2023-02-26T07:14:46;97247.09;;;-0.09;73.51
76746;BME280;65671;49.976;20.038;2023-02-26T07:17:12;97243.09;;;-0.03;71.46
76746;BME280;65671;49.976;20.038;2023-02-26T07:19:51;97242.16;;;-0.23;71.69
76746;BME280;65671;49.976;20.038;2023-02-26T07:22:18;97250.66;;;-0.17;71.64
76746;BME280;65671;49.976;20.038;2023-02-26T07:24:44;97233.41;;;-0.51;71.66
76746;BME280;65671;49.976;20.038;2023-02-26T07:27:10;97266.97;;;-0.46;72.58
76746;BME280;65671;49.976;20.038;2023-02-26T07:29:36;97265.91;;;-0.30;72.88
76746;BME280;65671;49.976;20.038;2023-02-26T07:32:02;97272.72;;;-0.44;72.97
76746;BME280;65671;49.976;20.038;2023-02-26T07:34:28;97260.53;;;-0.18;72.74
76746;BME280;65671;49.976;20.038;2023-02-26T07:36:53;97259.72;;;-0.34;72.09
76746;BME280;65671;49.976;20.038;2023-02-26T07:39:19;97270.75;;;-0.47;71.84
76746;BME280;65671;49.976;20.038;2023-02-26T07:41:45;97278.06;;;-0.44;72.56
76746;BME280;65671;49.976;20.038;2023-02-26T07:44:11;97278.06;;;-0.44;71.21
76746;BME280;65671;49.976;20.038;2023-02-26T07:46:37;97291.19;;;-0.24;70.73
76746;BME280;65671;49.976;20.038;2023-02-26T07:49:03;97294.84;;;-0.28;72.08
76746;BME280;65671;49.976;20.038;2023-02-26T07:51:28;97310.06;;;-0.13;71.87
76746;BME280;65671;49.976;20.038;2023-02-26T07:53:53;97307.22;;;0.08;72.49
76746;BME280;65671;49.976;20.038;2023-02-26T07:56:19;97317.63;;;-0.15;72.20
76746;BME280;65671;49.976;20.038;2023-02-26T07:58:44;97311.13;;;-0.30;72.03
76746;BME280;65671;49.976;20.038;2023-02-26T08:01:09;97337.03;;;0.13;70.93
76746;BME280;65671;49.976;20.038;2023-02-26T08:03:35;97329.28;;;-0.20;71.84
76746;BME280;65671;49.976;20.038;2023-02-26T08:06:01;97338.47;;;0.11;72.12
76746;BME280;65671;49.976;20.038;2023-02-26T08:08:28;97337.97;;;0.05;69.54
76746;BME280;65671;49.976;20.038;2023-02-26T08:10:53;97322.03;;;-0.07;70.81
76746;BME280;65671;49.976;20.038;2023-02-26T08:13:19;97333.34;;;-0.10;70.46
76746;BME280;65671;49.976;20.038;2023-02-26T08:15:46;97351.75;;;0.23;73.15
76746;BME280;65671;49.976;20.038;2023-02-26T08:18:11;97361.72;;;-0.14;70.95
76746;BME280;65671;49.976;20.038;2023-02-26T08:20:37;97345.16;;;-0.35;70.35
76746;BME280;65671;49.976;20.038;2023-02-26T08:23:02;97374.88;;;-0.45;69.99
76746;BME280;65671;49.976;20.038;2023-02-26T08:25:28;97366.44;;;-0.35;70.64
76746;BME280;65671;49.976;20.038;2023-02-26T08:27:53;97363.69;;;-0.39;68.48
76746;BME280;65671;49.976;20.038;2023-02-26T08:30:19;97359.81;;;-0.41;67.82
76746;BME280;65671;49.976;20.038;2023-02-26T08:32:44;97380.84;;;-0.24;66.04
76746;BME280;65671;49.976;20.038;2023-02-26T08:35:11;97360.22;;;-0.27;67.87
76746;BME280;65671;49.976;20.038;2023-02-26T08:37:37;97367.97;;;-0.34;67.65
76746;BME280;65671;49.976;20.038;2023-02-26T08:40:03;97370.38;;;-0.17;68.37
76746;BME280;65671;49.976;20.038;2023-02-26T08:42:29;97368.75;;;-0.22;68.18
76746;BME280;65671;49.976;20.038;2023-02-26T08:44:54;97371.38;;;0.18;68.90
76746;BME280;65671;49.976;20.038;2023-02-26T08:47:20;97374.41;;;0.17;67.79
76746;BME280;65671;49.976;20.038;2023-02-26T08:49:46;97383.34;;;-0.04;68.13
76746;BME280;65671;49.976;20.038;2023-02-26T08:52:11;97399.94;;;0.06;68.46
76746;BME280;65671;49.976;20.038;2023-02-26T08:54:37;97395.56;;;0.25;69.61
76746;BME280;65671;49.976;20.038;2023-02-26T08:57:02;97396.75;;;0.55;67.61
76746;BME280;65671;49.976;20.038;2023-02-26T08:59:28;97390.09;;;0.77;68.22
76746;BME280;65671;49.976;20.038;2023-02-26T09:01:54;97412.44;;;0.73;66.46
76746;BME280;65671;49.976;20.038;2023-02-26T09:04:19;97395.75;;;0.76;67.16
76746;BME280;65671;49.976;20.038;2023-02-26T09:06:45;97417.47;;;0.62;66.01
76746;BME280;65671;49.976;20.038;2023-02-26T09:09:10;97420.44;;;0.73;67.04
76746;BME280;65671;49.976;20.038;2023-02-26T09:11:36;97423.66;;;0.94;65.12
76746;BME280;65671;49.976;20.038;2023-02-26T09:14:02;97422.91;;;1.09;66.52
76746;BME280;65671;49.976;20.038;2023-02-26T09:16:28;97425.44;;;0.46;64.24
76746;BME280;65671;49.976;20.038;2023-02-26T09:18:55;97440.69;;;0.62;65.72
76746;BME280;65671;49.976;20.038;2023-02-26T09:21:21;97447.88;;;0.33;65.70
76746;BME280;65671;49.976;20.038;2023-02-26T09:23:47;97423.81;;;0.30;65.18
76746;BME280;65671;49.976;20.038;2023-02-26T09:26:12;97455.03;;;0.45;66.14
76746;BME280;65671;49.976;20.038;2023-02-26T09:28:38;97450.19;;;0.90;64.27
76746;BME280;65671;49.976;20.038;2023-02-26T09:31:03;97446.25;;;1.16;61.83
76746;BME280;65671;49.976;20.038;2023-02-26T09:33:31;97441.88;;;1.07;62.49
76746;BME280;65671;49.976;20.038;2023-02-26T09:35:58;97437.34;;;0.65;63.40
76746;BME280;65671;49.976;20.038;2023-02-26T09:38:24;97445.28;;;0.77;60.45
76746;BME280;65671;49.976;20.038;2023-02-26T09:52:04;97463.56;;;0.50;63.91
76746;BME280;65671;49.976;20.038;2023-02-26T09:54:42;97453.81;;;0.54;64.77
76746;BME280;65671;49.976;20.038;2023-02-26T09:57:12;97467.69;;;0.08;65.68
76746;BME280;65671;49.976;20.038;2023-02-26T09:59:39;97462.81;;;-0.02;67.27
76746;BME280;65671;49.976;20.038;2023-02-26T10:04:48;97492.44;;;-0.40;73.32
76746;BME280;65671;49.976;20.038;2023-02-26T10:07:37;97492.00;;;-0.54;74.94
76746;BME280;65671;49.976;20.038;2023-02-26T10:10:16;97501.22;;;-0.03;73.92
76746;BME280;65671;49.976;20.038;2023-02-26T10:12:45;97511.41;;;-0.41;78.08
76746;BME280;65671;49.976;20.038;2023-02-26T10:15:21;97499.84;;;-0.58;77.37
76746;BME280;65671;49.976;20.038;2023-02-26T10:20:41;97508.38;;;-0.52;78.31
76746;BME280;65671;49.976;20.038;2023-02-26T10:26:39;97509.38;;;-0.20;78.74
76746;BME280;65671;49.976;20.038;2023-02-26T10:34:31;97522.53;;;0.37;80.63
76746;BME280;65671;49.976;20.038;2023-02-26T10:42:36;97524.22;;;0.29;74.92
76746;BME280;65671;49.976;20.038;2023-02-26T10:50:58;97526.28;;;0.88;68.30
76746;BME280;65671;49.976;20.038;2023-02-26T10:53:26;97518.34;;;0.76;67.21
76746;BME280;65671;49.976;20.038;2023-02-26T10:58:31;97535.69;;;1.41;65.03
76746;BME280;65671;49.976;20.038;2023-02-26T11:00:56;97533.16;;;1.17;66.18
76746;BME280;65671;49.976;20.038;2023-02-26T11:03:31;97547.06;;;1.53;60.15
76746;BME280;65671;49.976;20.038;2023-02-26T11:05:59;97538.78;;;1.90;63.94
76746;BME280;65671;49.976;20.038;2023-02-26T11:08:36;97546.03;;;1.74;59.53
76746;BME280;65671;49.976;20.038;2023-02-26T11:11:04;97540.09;;;1.96;59.92
76746;BME280;65671;49.976;20.038;2023-02-26T11:13:33;97550.59;;;2.39;60.75
76746;BME280;65671;49.976;20.038;2023-02-26T11:16:07;97544.22;;;1.78;58.38
76746;BME280;65671;49.976;20.038;2023-02-26T11:18:39;97512.56;;;1.76;59.93
76746;BME280;65671;49.976;20.038;2023-02-26T11:21:07;97550.75;;;1.96;59.75
76746;BME280;65671;49.976;20.038;2023-02-26T11:23:34;97552.31;;;2.12;59.27
76746;BME280;65671;49.976;20.038;2023-02-26T11:26:05;97558.50;;;2.01;59.80
76746;BME280;65671;49.976;20.038;2023-02-26T11:28:36;97564.44;;;2.25;60.48
76746;BME280;65671;49.976;20.038;2023-02-26T11:31:10;97552.22;;;2.09;58.30
76746;BME280;65671;49.976;20.038;2023-02-26T11:33:39;97564.09;;;2.27;56.45
76746;BME280;65671;49.976;20.038;2023-02-26T11:36:13;97573.16;;;1.76;56.71
76746;BME280;65671;49.976;20.038;2023-02-26T11:38:40;97567.63;;;1.68;57.98
76746;BME280;65671;49.976;20.038;2023-02-26T11:41:09;97571.78;;;1.50;60.29
76746;BME280;65671;49.976;20.038;2023-02-26T11:43:41;97576.13;;;1.43;61.35
76746;BME280;65671;49.976;20.038;2023-02-26T11:46:09;97582.44;;;1.23;62.71
76746;BME280;65671;49.976;20.038;2023-02-26T11:48:47;97592.94;;;1.03;65.78
76746;BME280;65671;49.976;20.038;2023-02-26T11:51:18;97591.31;;;0.99;64.18
76746;BME280;65671;49.976;20.038;2023-02-26T11:53:58;97604.72;;;0.63;65.56
76746;BME280;65671;49.976;20.038;2023-02-26T11:56:35;97609.97;;;0.35;65.33
76746;BME280;65671;49.976;20.038;2023-02-26T11:59:23;97597.22;;;0.40;65.68
76746;BME280;65671;49.976;20.038;2023-02-26T12:01:50;97612.13;;;0.81;65.09
76746;BME280;65671;49.976;20.038;2023-02-26T12:04:23;97603.50;;;0.60;65.17
76746;BME280;65671;49.976;20.038;2023-02-26T12:06:51;97610.16;;;0.66;64.59
76746;BME280;65671;49.976;20.038;2023-02-26T12:09:18;97614.16;;;0.72;63.70
76746;BME280;65671;49.976;20.038;2023-02-26T12:20:20;97615.75;;;1.56;66.14
76746;BME280;65671;49.976;20.038;2023-02-26T12:22:47;97628.94;;;1.37;62.55
76746;BME280;65671;49.976;20.038;2023-02-26T12:25:50;97643.72;;;2.06;63.82
76746;BME280;65671;49.976;20.038;2023-02-26T12:45:53;97664.31;;;0.94;59.39
76746;BME280;65671;49.976;20.038;2023-02-26T12:53:44;97677.72;;;0.98;61.31
76746;BME280;65671;49.976;20.038;2023-02-26T12:59:17;97690.47;;;1.04;59.60
76746;BME280;65671;49.976;20.038;2023-02-26T13:02:22;97691.88;;;1.26;61.33
76746;BME280;65671;49.976;20.038;2023-02-26T13:07:42;97705.03;;;0.95;60.35
76746;BME280;65671;49.976;20.038;2023-02-26T13:10:25;97699.88;;;0.50;62.44
76746;BME280;65671;49.976;20.038;2023-02-26T13:18:51;97711.50;;;0.33;67.91
76746;BME280;65671;49.976;20.038;2023-02-26T13:21:24;97713.63;;;0.64;68.33
76746;BME280;65671;49.976;20.038;2023-02-26T13:23:55;97714.38;;;0.40;67.36
76746;BME280;65671;49.976;20.038;2023-02-26T13:26:23;97722.16;;;0.57;68.23
76746;BME280;65671;49.976;20.038;2023-02-26T13:28:57;97732.84;;;0.70;66.28
76746;BME280;65671;49.976;20.038;2023-02-26T13:31:53;97743.47;;;0.45;68.00
76746;BME280;65671;49.976;20.038;2023-02-26T13:34:39;97741.72;;;0.62;67.73
76746;BME280;65671;49.976;20.038;2023-02-26T13:37:14;97721.03;;;0.34;69.62
76746;BME280;65671;49.976;20.038;2023-02-26T13:40:03;97746.94;;;0.58;70.00
76746;BME280;65671;49.976;20.038;2023-02-26T13:48:29;97761.88;;;0.50;70.79
76746;BME280;65671;49.976;20.038;2023-02-26T13:53:48;97744.25;;;-0.32;75.55
76746;BME280;65671;49.976;20.038;2023-02-26T13:59:16;97771.56;;;-0.43;74.78
76746;BME280;65671;49.976;20.038;2023-02-26T14:01:53;97769.72;;;-0.10;74.11
76746;BME280;65671;49.976;20.038;2023-02-26T14:06:54;97788.75;;;-0.20;67.93
76746;BME280;65671;49.976;20.038;2023-02-26T14:14:42;97792.16;;;0.01;67.75
76746;BME280;65671;49.976;20.038;2023-02-26T14:20:42;97788.75;;;-0.20;66.85
76746;BME280;65671;49.976;20.038;2023-02-26T14:22:50;97792.19;;;0.13;66.20
76746;BME280;65671;49.976;20.038;2023-02-26T14:25:28;97786.00;;;-0.12;66.77
76746;BME280;65671;49.976;20.038;2023-02-26T14:33:30;97801.75;;;0.14;66.35
76746;BME280;65671;49.976;20.038;2023-02-26T14:35:57;97806.31;;;-0.07;66.60
76746;BME280;65671;49.976;20.038;2023-02-26T14:38:26;97792.25;;;-0.49;67.53
76746;BME280;65671;49.976;20.038;2023-02-26T14:41:32;97798.00;;;-0.06;67.72
76746;BME280;65671;49.976;20.038;2023-02-26T14:44:03;97802.50;;;0.03;66.69
76746;BME280;65671;49.976;20.038;2023-02-26T14:46:31;97802.41;;;0.11;64.85
76746;BME280;65671;49.976;20.038;2023-02-26T14:48:58;97790.31;;;0.46;64.45
76746;BME280;65671;49.976;20.038;2023-02-26T14:51:27;97805.63;;;0.49;64.30
76746;BME280;65671;49.976;20.038;2023-02-26T14:56:29;97803.28;;;0.15;65.34
76746;BME280;65671;49.976;20.038;2023-02-26T14:59:37;97806.78;;;0.73;63.02
76746;BME280;65671;49.976;20.038;2023-02-26T15:02:29;97818.66;;;0.87;62.59
76746;BME280;65671;49.976;20.038;2023-02-26T15:07:45;97811.38;;;0.39;62.58
76746;BME280;65671;49.976;20.038;2023-02-26T15:10:35;97848.34;;;0.41;62.54
76746;BME280;65671;49.976;20.038;2023-02-26T15:21:10;97869.34;;;0.54;63.79
76746;BME280;65671;49.976;20.038;2023-02-26T15:23:43;97861.09;;;0.47;63.79
76746;BME280;65671;49.976;20.038;2023-02-26T15:26:18;97870.56;;;0.04;65.42
76746;BME280;65671;49.976;20.038;2023-02-26T15:28:45;97861.63;;;0.08;64.67
76746;BME280;65671;49.976;20.038;2023-02-26T15:31:12;97879.47;;;0.08;65.45
76746;BME280;65671;49.976;20.038;2023-02-26T15:33:38;97866.28;;;0.11;66.34
76746;BME280;65671;49.976;20.038;2023-02-26T15:36:13;97863.03;;;0.26;64.51
76746;BME280;65671;49.976;20.038;2023-02-26T15:38:44;97843.94;;;0.04;65.76
76746;BME280;65671;49.976;20.038;2023-02-26T15:41:13;97876.22;;;0.02;64.88
76746;BME280;65671;49.976;20.038;2023-02-26T15:43:55;97832.94;;;-0.07;63.86
76746;BME280;65671;49.976;20.038;2023-02-26T15:46:29;97855.53;;;0.08;65.82